sensor_id;sensor_type;location;lat;lon;timestamp;temperature;humidity
37289;DHT22;23174;49.462;11.000;2022-12-24T00:00:41;12.50;99.90
37289;DHT22;23174;49.462;11.000;2022-12-24T00:02:41;12.50;99.90
37289;DHT22;23174;49.462;11.000;2022-12-24T00:04:42;12.50;99.90
37289;DHT22;23174;49.462;11.000;2022-12-24T00:06:42;12.40;99.90
37289;DHT22;23174;49.462;11.000;2022-12-24T00:08:43;12.50;99.90
37289;DHT22;23174;49.462;11.000;2022-12-24T00:10:48;12.50;99.90
37289;DHT22;23174;49.462;11.000;2022-12-24T00:12:49;12.40;99.90
37289;DHT22;23174;49.462;11.000;2022-12-24T00:14:50;12.40;99.90
37289;DHT22;23174;49.462;11.000;2022-12-24T00:16:50;12.40;99.90
37289;DHT22;23174;49.462;11.000;2022-12-24T00:18:51;12.40;99.90
37289;DHT22;23174;49.462;11.000;2022-12-24T00:20:51;12.30;99.90
37289;DHT22;23174;49.462;11.000;2022-12-24T00:22:52;12.30;99.90
37289;DHT22;23174;49.462;11.000;2022-12-24T00:24:52;12.30;99.90
37289;DHT22;23174;49.462;11.000;2022-12-24T00:26:53;12.30;99.90
37289;DHT22;23174;49.462;11.000;2022-12-24T00:28:54;12.40;99.90
37289;DHT22;23174;49.462;11.000;2022-12-24T00:30:54;12.40;99.90
37289;DHT22;23174;49.462;11.000;2022-12-24T00:32:55;12.40;99.90
37289;DHT22;23174;49.462;11.000;2022-12-24T00:34:55;12.40;99.90
37289;DHT22;23174;49.462;11.000;2022-12-24T00:36:56;12.40;99.90
37289;DHT22;23174;49.462;11.000;2022-12-24T00:38:56;12.40;99.90
37289;DHT22;23174;49.462;11.000;2022-12-24T00:41:01;12.40;99.90
37289;DHT22;23174;49.462;11.000;2022-12-24T00:43:02;12.40;99.90
37289;DHT22;23174;49.462;11.000;2022-12-24T00:45:03;12.30;99.90
37289;DHT22;23174;49.462;11.000;2022-12-24T00:47:04;12.30;99.90
37289;DHT22;23174;49.462;11.000;2022-12-24T00:49:06;12.60;99.90
37289;DHT22;23174;49.462;11.000;2022-12-24T00:51:07;12.70;99.90
37289;DHT22;23174;49.462;11.000;2022-12-24T00:53:08;12.70;99.90
37289;DHT22;23174;49.462;11.000;2022-12-24T00:55:08;12.70;99.90
37289;DHT22;23174;49.462;11.000;2022-12-24T00:57:09;12.70;99.90
37289;DHT22;23174;49.462;11.000;2022-12-24T00:59:09;12.70;99.90
37289;DHT22;23174;49.462;11.000;2022-12-24T01:01:10;12.70;99.90
37289;DHT22;23174;49.462;11.000;2022-12-24T01:03:11;12.70;99.90
37289;DHT22;23174;49.462;11.000;2022-12-24T01:05:12;12.60;99.90
37289;DHT22;23174;49.462;11.000;2022-12-24T01:07:12;12.60;99.90
37289;DHT22;23174;49.462;11.000;2022-12-24T01:09:13;12.70;99.90
37289;DHT22;23174;49.462;11.000;2022-12-24T01:11:14;12.70;99.90
37289;DHT22;23174;49.462;11.000;2022-12-24T01:13:14;12.70;99.90
37289;DHT22;23174;49.462;11.000;2022-12-24T01:15:15;12.70;99.90
37289;DHT22;23174;49.462;11.000;2022-12-24T01:17:16;12.60;99.90
37289;DHT22;23174;49.462;11.000;2022-12-24T01:19:16;12.60;99.90
37289;DHT22;23174;49.462;11.000;2022-12-24T01:21:17;12.70;99.90
37289;DHT22;23174;49.462;11.000;2022-12-24T01:23:17;12.70;99.90
37289;DHT22;23174;49.462;11.000;2022-12-24T01:25:18;12.60;99.90
37289;DHT22;23174;49.462;11.000;2022-12-24T01:27:19;12.70;99.90
37289;DHT22;23174;49.462;11.000;2022-12-24T01:29:20;12.70;99.90
37289;DHT22;23174;49.462;11.000;2022-12-24T01:31:20;12.60;99.90
37289;DHT22;23174;49.462;11.000;2022-12-24T01:33:21;12.60;99.90
37289;DHT22;23174;49.462;11.000;2022-12-24T01:35:21;12.70;99.90
37289;DHT22;23174;49.462;11.000;2022-12-24T01:37:22;12.60;99.90
37289;DHT22;23174;49.462;11.000;2022-12-24T01:39:23;12.60;99.90
37289;DHT22;23174;49.462;11.000;2022-12-24T01:41:24;12.60;99.90
37289;DHT22;23174;49.462;11.000;2022-12-24T01:43:43;12.60;99.90
37289;DHT22;23174;49.462;11.000;2022-12-24T01:47:48;12.50;99.90
37289;DHT22;23174;49.462;11.000;2022-12-24T01:50:01;12.50;99.90
37289;DHT22;23174;49.462;11.000;2022-12-24T01:52:14;12.50;99.90
37289;DHT22;23174;49.462;11.000;2022-12-24T01:54:29;12.60;99.90
37289;DHT22;23174;49.462;11.000;2022-12-24T01:56:32;12.50;99.90
37289;DHT22;23174;49.462;11.000;2022-12-24T01:58:34;12.60;99.90
37289;DHT22;23174;49.462;11.000;2022-12-24T02:00:36;12.50;99.90
37289;DHT22;23174;49.462;11.000;2022-12-24T02:02:39;12.50;99.90
37289;DHT22;23174;49.462;11.000;2022-12-24T02:04:49;12.50;99.90
37289;DHT22;23174;49.462;11.000;2022-12-24T02:06:50;12.40;99.90
37289;DHT22;23174;49.462;11.000;2022-12-24T02:08:50;12.40;99.90
37289;DHT22;23174;49.462;11.000;2022-12-24T02:10:51;12.40;99.90
37289;DHT22;23174;49.462;11.000;2022-12-24T02:12:52;12.40;99.90
37289;DHT22;23174;49.462;11.000;2022-12-24T02:14:53;12.40;99.90
37289;DHT22;23174;49.462;11.000;2022-12-24T02:24:20;12.40;99.90
37289;DHT22;23174;49.462;11.000;2022-12-24T02:31:14;12.40;99.90
37289;DHT22;23174;49.462;11.000;2022-12-24T02:37:48;12.50;99.90
37289;DHT22;23174;49.462;11.000;2022-12-24T02:39:55;12.50;99.90
37289;DHT22;23174;49.462;11.000;2022-12-24T02:42:01;12.40;99.90
37289;DHT22;23174;49.462;11.000;2022-12-24T02:44:08;12.40;99.90
37289;DHT22;23174;49.462;11.000;2022-12-24T02:46:25;12.40;99.90
37289;DHT22;23174;49.462;11.000;2022-12-24T02:48:27;12.40;99.90
37289;DHT22;23174;49.462;11.000;2022-12-24T02:50:30;12.30;99.90
37289;DHT22;23174;49.462;11.000;2022-12-24T02:52:36;12.30;99.90
37289;DHT22;23174;49.462;11.000;2022-12-24T02:54:43;12.30;99.90
37289;DHT22;23174;49.462;11.000;2022-12-24T02:57:05;12.20;99.90
37289;DHT22;23174;49.462;11.000;2022-12-24T03:01:44;12.20;99.90
37289;DHT22;23174;49.462;11.000;2022-12-24T03:06:34;12.10;99.90
37289;DHT22;23174;49.462;11.000;2022-12-24T03:08:43;12.00;99.90
37289;DHT22;23174;49.462;11.000;2022-12-24T03:10:59;11.90;99.90
37289;DHT22;23174;49.462;11.000;2022-12-24T03:13:14;11.90;99.90
37289;DHT22;23174;49.462;11.000;2022-12-24T03:15:17;12.00;99.90
37289;DHT22;23174;49.462;11.000;2022-12-24T03:17:19;12.00;99.90
37289;DHT22;23174;49.462;11.000;2022-12-24T03:19:21;12.00;99.90
37289;DHT22;23174;49.462;11.000;2022-12-24T03:21:28;12.00;99.90
37289;DHT22;23174;49.462;11.000;2022-12-24T03:23:31;11.90;99.90
37289;DHT22;23174;49.462;11.000;2022-12-24T03:25:32;11.80;99.90
37289;DHT22;23174;49.462;11.000;2022-12-24T03:27:34;11.70;99.90
37289;DHT22;23174;49.462;11.000;2022-12-24T03:29:38;11.80;99.90
37289;DHT22;23174;49.462;11.000;2022-12-24T03:31:52;11.80;99.90
37289;DHT22;23174;49.462;11.000;2022-12-24T03:33:59;11.90;99.90
37289;DHT22;23174;49.462;11.000;2022-12-24T03:36:00;11.90;99.90
37289;DHT22;23174;49.462;11.000;2022-12-24T03:38:00;11.80;99.90
37289;DHT22;23174;49.462;11.000;2022-12-24T03:40:01;11.80;99.90
37289;DHT22;23174;49.462;11.000;2022-12-24T03:42:02;11.80;99.90
37289;DHT22;23174;49.462;11.000;2022-12-24T03:44:02;11.80;99.90
37289;DHT22;23174;49.462;11.000;2022-12-24T03:46:05;11.80;99.90
37289;DHT22;23174;49.462;11.000;2022-12-24T03:48:06;11.80;99.90
37289;DHT22;23174;49.462;11.000;2022-12-24T03:50:07;11.70;99.90
37289;DHT22;23174;49.462;11.000;2022-12-24T03:52:07;11.60;99.90
37289;DHT22;23174;49.462;11.000;2022-12-24T03:54:08;11.60;99.90
37289;DHT22;23174;49.462;11.000;2022-12-24T03:56:08;11.60;99.90
37289;DHT22;23174;49.462;11.000;2022-12-24T03:58:09;11.60;99.90
37289;DHT22;23174;49.462;11.000;2022-12-24T04:00:10;11.60;99.90
37289;DHT22;23174;49.462;11.000;2022-12-24T04:02:11;11.50;99.90
37289;DHT22;23174;49.462;11.000;2022-12-24T04:04:11;11.60;99.90
37289;DHT22;23174;49.462;11.000;2022-12-24T04:06:14;11.60;99.90
37289;DHT22;23174;49.462;11.000;2022-12-24T04:08:17;11.70;99.90
37289;DHT22;23174;49.462;11.000;2022-12-24T04:10:17;11.70;99.90
37289;DHT22;23174;49.462;11.000;2022-12-24T04:12:18;11.70;99.90
37289;DHT22;23174;49.462;11.000;2022-12-24T04:14:18;11.70;99.90
37289;DHT22;23174;49.462;11.000;2022-12-24T04:16:19;11.70;99.90
37289;DHT22;23174;49.462;11.000;2022-12-24T04:18:21;11.70;99.90
37289;DHT22;23174;49.462;11.000;2022-12-24T04:20:21;11.70;99.90
37289;DHT22;23174;49.462;11.000;2022-12-24T04:22:22;11.70;99.90
37289;DHT22;23174;49.462;11.000;2022-12-24T04:24:22;11.70;99.90
37289;DHT22;23174;49.462;11.000;2022-12-24T04:26:23;11.60;99.90
37289;DHT22;23174;49.462;11.000;2022-12-24T04:28:23;11.70;99.90
37289;DHT22;23174;49.462;11.000;2022-12-24T04:30:24;11.70;99.90
37289;DHT22;23174;49.462;11.000;2022-12-24T04:32:25;11.70;99.90
37289;DHT22;23174;49.462;11.000;2022-12-24T04:34:26;11.70;99.90
37289;DHT22;23174;49.462;11.000;2022-12-24T04:36:27;11.70;99.90
37289;DHT22;23174;49.462;11.000;2022-12-24T04:38:27;11.80;99.90
37289;DHT22;23174;49.462;11.000;2022-12-24T04:40:28;11.70;99.90
37289;DHT22;23174;49.462;11.000;2022-12-24T04:42:29;11.80;99.90
37289;DHT22;23174;49.462;11.000;2022-12-24T04:44:29;11.70;99.90
37289;DHT22;23174;49.462;11.000;2022-12-24T04:46:30;11.80;99.90
37289;DHT22;23174;49.462;11.000;2022-12-24T04:48:30;11.80;99.90
37289;DHT22;23174;49.462;11.000;2022-12-24T04:50:31;11.80;99.90
37289;DHT22;23174;49.462;11.000;2022-12-24T04:52:33;11.70;99.90
37289;DHT22;23174;49.462;11.000;2022-12-24T04:54:33;11.80;99.90
37289;DHT22;23174;49.462;11.000;2022-12-24T04:56:34;11.80;99.90
37289;DHT22;23174;49.462;11.000;2022-12-24T04:58:34;11.80;99.90
37289;DHT22;23174;49.462;11.000;2022-12-24T05:00:35;11.80;99.90
37289;DHT22;23174;49.462;11.000;2022-12-24T05:02:36;11.70;99.90
37289;DHT22;23174;49.462;11.000;2022-12-24T05:04:37;11.70;99.90
37289;DHT22;23174;49.462;11.000;2022-12-24T05:06:37;11.70;99.90
37289;DHT22;23174;49.462;11.000;2022-12-24T05:08:38;11.70;99.90
37289;DHT22;23174;49.462;11.000;2022-12-24T05:10:39;11.80;99.90
37289;DHT22;23174;49.462;11.000;2022-12-24T05:12:39;11.80;99.90
37289;DHT22;23174;49.462;11.000;2022-12-24T05:14:40;11.80;99.90
37289;DHT22;23174;49.462;11.000;2022-12-24T05:16:41;11.80;99.90
37289;DHT22;23174;49.462;11.000;2022-12-24T05:18:43;11.70;99.90
37289;DHT22;23174;49.462;11.000;2022-12-24T05:20:44;11.70;99.90
37289;DHT22;23174;49.462;11.000;2022-12-24T05:22:44;11.80;99.90
37289;DHT22;23174;49.462;11.000;2022-12-24T05:25:04;11.70;99.90
37289;DHT22;23174;49.462;11.000;2022-12-24T05:27:23;11.70;99.90
37289;DHT22;23174;49.462;11.000;2022-12-24T05:29:23;11.60;99.90
37289;DHT22;23174;49.462;11.000;2022-12-24T05:31:26;11.60;99.90
37289;DHT22;23174;49.462;11.000;2022-12-24T05:33:27;11.60;99.90
37289;DHT22;23174;49.462;11.000;2022-12-24T05:35:27;11.60;99.90
37289;DHT22;23174;49.462;11.000;2022-12-24T05:37:28;11.60;99.90
37289;DHT22;23174;49.462;11.000;2022-12-24T05:39:28;11.60;99.90
37289;DHT22;23174;49.462;11.000;2022-12-24T05:41:29;11.60;99.90
37289;DHT22;23174;49.462;11.000;2022-12-24T05:43:30;11.60;99.90
37289;DHT22;23174;49.462;11.000;2022-12-24T05:45:31;11.60;99.90
37289;DHT22;23174;49.462;11.000;2022-12-24T05:47:32;11.60;99.90
37289;DHT22;23174;49.462;11.000;2022-12-24T05:49:32;11.50;99.90
37289;DHT22;23174;49.462;11.000;2022-12-24T05:51:33;11.60;99.90
37289;DHT22;23174;49.462;11.000;2022-12-24T05:53:35;11.60;99.90
37289;DHT22;23174;49.462;11.000;2022-12-24T05:55:35;11.60;99.90
37289;DHT22;23174;49.462;11.000;2022-12-24T05:57:37;11.60;99.90
37289;DHT22;23174;49.462;11.000;2022-12-24T05:59:38;11.50;99.90
37289;DHT22;23174;49.462;11.000;2022-12-24T06:01:39;11.60;99.90
37289;DHT22;23174;49.462;11.000;2022-12-24T06:03:39;11.50;99.90
37289;DHT22;23174;49.462;11.000;2022-12-24T06:05:40;11.70;99.90
37289;DHT22;23174;49.462;11.000;2022-12-24T06:07:41;11.60;99.90
37289;DHT22;23174;49.462;11.000;2022-12-24T06:09:41;11.60;99.90
37289;DHT22;23174;49.462;11.000;2022-12-24T06:11:42;11.60;99.90
37289;DHT22;23174;49.462;11.000;2022-12-24T06:13:43;11.70;99.90
37289;DHT22;23174;49.462;11.000;2022-12-24T06:15:43;11.70;99.90
37289;DHT22;23174;49.462;11.000;2022-12-24T06:17:44;11.70;99.90
37289;DHT22;23174;49.462;11.000;2022-12-24T06:19:44;11.60;99.90
37289;DHT22;23174;49.462;11.000;2022-12-24T06:21:45;11.60;99.90
37289;DHT22;23174;49.462;11.000;2022-12-24T06:23:45;11.50;99.90
37289;DHT22;23174;49.462;11.000;2022-12-24T06:25:47;11.60;99.90
37289;DHT22;23174;49.462;11.000;2022-12-24T06:27:47;11.50;99.90
37289;DHT22;23174;49.462;11.000;2022-12-24T06:29:48;11.50;99.90
37289;DHT22;23174;49.462;11.000;2022-12-24T06:31:48;11.50;99.90
37289;DHT22;23174;49.462;11.000;2022-12-24T06:33:50;11.50;99.90
37289;DHT22;23174;49.462;11.000;2022-12-24T06:35:51;11.60;99.90
37289;DHT22;23174;49.462;11.000;2022-12-24T06:37:51;11.60;99.90
37289;DHT22;23174;49.462;11.000;2022-12-24T06:39:52;11.70;99.90
37289;DHT22;23174;49.462;11.000;2022-12-24T06:41:53;11.70;99.90
37289;DHT22;23174;49.462;11.000;2022-12-24T06:43:53;11.70;99.90
37289;DHT22;23174;49.462;11.000;2022-12-24T06:45:54;11.70;99.90
37289;DHT22;23174;49.462;11.000;2022-12-24T06:47:54;11.70;99.90
37289;DHT22;23174;49.462;11.000;2022-12-24T06:49:55;11.70;99.90
37289;DHT22;23174;49.462;11.000;2022-12-24T06:51:55;11.70;99.90
37289;DHT22;23174;49.462;11.000;2022-12-24T06:53:56;11.60;99.90
37289;DHT22;23174;49.462;11.000;2022-12-24T06:56:04;11.70;99.90
37289;DHT22;23174;49.462;11.000;2022-12-24T06:58:05;11.70;99.90
37289;DHT22;23174;49.462;11.000;2022-12-24T07:00:10;11.60;99.90
37289;DHT22;23174;49.462;11.000;2022-12-24T07:02:11;11.60;99.90
37289;DHT22;23174;49.462;11.000;2022-12-24T07:04:11;11.40;99.90
37289;DHT22;23174;49.462;11.000;2022-12-24T07:06:19;11.20;99.90
37289;DHT22;23174;49.462;11.000;2022-12-24T07:08:19;11.20;99.90
37289;DHT22;23174;49.462;11.000;2022-12-24T07:10:20;11.20;99.90
37289;DHT22;23174;49.462;11.000;2022-12-24T07:12:21;11.20;99.90
37289;DHT22;23174;49.462;11.000;2022-12-24T07:14:22;11.20;99.90
37289;DHT22;23174;49.462;11.000;2022-12-24T07:16:22;11.20;99.90
37289;DHT22;23174;49.462;11.000;2022-12-24T07:18:23;11.20;99.90
37289;DHT22;23174;49.462;11.000;2022-12-24T07:20:23;11.20;99.90
37289;DHT22;23174;49.462;11.000;2022-12-24T07:22:24;11.10;99.90
37289;DHT22;23174;49.462;11.000;2022-12-24T07:24:24;11.20;99.90
37289;DHT22;23174;49.462;11.000;2022-12-24T07:26:25;11.20;99.90
37289;DHT22;23174;49.462;11.000;2022-12-24T07:28:26;11.10;99.90
37289;DHT22;23174;49.462;11.000;2022-12-24T07:30:26;11.10;99.90
37289;DHT22;23174;49.462;11.000;2022-12-24T07:32:27;11.20;99.90
37289;DHT22;23174;49.462;11.000;2022-12-24T07:34:28;11.10;99.90
37289;DHT22;23174;49.462;11.000;2022-12-24T07:36:28;11.10;99.90
37289;DHT22;23174;49.462;11.000;2022-12-24T07:38:30;11.10;99.90
37289;DHT22;23174;49.462;11.000;2022-12-24T07:40:33;11.10;99.90
37289;DHT22;23174;49.462;11.000;2022-12-24T07:42:34;11.10;99.90
37289;DHT22;23174;49.462;11.000;2022-12-24T07:44:35;11.10;99.90
37289;DHT22;23174;49.462;11.000;2022-12-24T07:46:35;11.10;99.90
37289;DHT22;23174;49.462;11.000;2022-12-24T07:48:36;11.20;99.90
37289;DHT22;23174;49.462;11.000;2022-12-24T07:50:36;11.20;99.90
37289;DHT22;23174;49.462;11.000;2022-12-24T07:52:37;11.10;99.90
37289;DHT22;23174;49.462;11.000;2022-12-24T07:54:38;11.10;99.90
37289;DHT22;23174;49.462;11.000;2022-12-24T07:56:39;11.10;99.90
37289;DHT22;23174;49.462;11.000;2022-12-24T07:58:39;11.00;99.90
37289;DHT22;23174;49.462;11.000;2022-12-24T08:00:40;11.10;99.90
37289;DHT22;23174;49.462;11.000;2022-12-24T08:02:41;11.10;99.90
37289;DHT22;23174;49.462;11.000;2022-12-24T08:04:41;11.10;99.90
37289;DHT22;23174;49.462;11.000;2022-12-24T08:06:42;11.10;99.90
37289;DHT22;23174;49.462;11.000;2022-12-24T08:08:42;11.10;99.90
37289;DHT22;23174;49.462;11.000;2022-12-24T08:10:44;11.10;99.90
37289;DHT22;23174;49.462;11.000;2022-12-24T08:12:45;11.20;99.90
37289;DHT22;23174;49.462;11.000;2022-12-24T08:14:47;11.20;99.90
37289;DHT22;23174;49.462;11.000;2022-12-24T08:16:48;11.30;99.90
37289;DHT22;23174;49.462;11.000;2022-12-24T08:18:48;11.30;99.90
37289;DHT22;23174;49.462;11.000;2022-12-24T08:20:50;11.30;99.90
37289;DHT22;23174;49.462;11.000;2022-12-24T08:22:51;11.30;99.90
37289;DHT22;23174;49.462;11.000;2022-12-24T08:24:52;11.30;99.90
37289;DHT22;23174;49.462;11.000;2022-12-24T08:26:53;11.30;99.90
37289;DHT22;23174;49.462;11.000;2022-12-24T08:28:53;11.30;99.90
37289;DHT22;23174;49.462;11.000;2022-12-24T08:30:54;11.40;99.90
37289;DHT22;23174;49.462;11.000;2022-12-24T08:32:54;11.30;99.90
37289;DHT22;23174;49.462;11.000;2022-12-24T08:34:55;11.40;99.90
37289;DHT22;23174;49.462;11.000;2022-12-24T08:36:55;11.40;99.90
37289;DHT22;23174;49.462;11.000;2022-12-24T08:38:56;11.40;99.90
37289;DHT22;23174;49.462;11.000;2022-12-24T08:40:57;11.50;99.90
37289;DHT22;23174;49.462;11.000;2022-12-24T08:42:57;11.40;99.90
37289;DHT22;23174;49.462;11.000;2022-12-24T08:44:58;11.70;99.90
37289;DHT22;23174;49.462;11.000;2022-12-24T08:46:59;12.10;99.90
37289;DHT22;23174;49.462;11.000;2022-12-24T08:49:00;12.40;99.90
37289;DHT22;23174;49.462;11.000;2022-12-24T08:51:08;12.50;99.90
37289;DHT22;23174;49.462;11.000;2022-12-24T08:53:09;12.60;99.90
37289;DHT22;23174;49.462;11.000;2022-12-24T08:55:10;12.70;99.90
37289;DHT22;23174;49.462;11.000;2022-12-24T08:57:10;12.70;99.90
37289;DHT22;23174;49.462;11.000;2022-12-24T08:59:11;12.80;99.90
37289;DHT22;23174;49.462;11.000;2022-12-24T09:01:15;12.80;99.90
37289;DHT22;23174;49.462;11.000;2022-12-24T09:03:15;12.80;99.90
37289;DHT22;23174;49.462;11.000;2022-12-24T09:05:16;12.80;99.90
37289;DHT22;23174;49.462;11.000;2022-12-24T09:07:17;12.80;99.90
37289;DHT22;23174;49.462;11.000;2022-12-24T09:09:17;12.80;99.90
37289;DHT22;23174;49.462;11.000;2022-12-24T09:11:21;12.90;99.90
37289;DHT22;23174;49.462;11.000;2022-12-24T09:13:22;12.80;99.90
37289;DHT22;23174;49.462;11.000;2022-12-24T09:15:22;12.80;99.90
37289;DHT22;23174;49.462;11.000;2022-12-24T09:17:23;12.80;99.90
37289;DHT22;23174;49.462;11.000;2022-12-24T09:19:23;12.90;99.90
37289;DHT22;23174;49.462;11.000;2022-12-24T09:21:24;12.90;99.90
37289;DHT22;23174;49.462;11.000;2022-12-24T09:23:25;12.90;99.90
